createdAt,value
2018-09-14T10:29:49.269Z,6.90
2018-09-14T10:32:18.294Z,8.30
2018-09-14T10:34:47.186Z,7.63
2018-09-14T10:37:17.026Z,7.97
2018-09-14T10:39:45.518Z,7.60
2018-09-14T10:42:14.427Z,7.30
2018-09-14T10:44:43.205Z,7.73
2018-09-14T10:47:12.000Z,8.27
2018-09-14T10:49:40.969Z,8.43
2018-09-14T10:52:09.530Z,7.67
2018-09-14T10:54:38.421Z,7.50
2018-09-14T10:57:07.365Z,6.87
2018-09-14T10:59:36.243Z,7.47
2018-09-14T11:02:05.721Z,7.77
2018-09-14T11:04:34.569Z,7.00
2018-09-14T11:07:03.846Z,8.23
2018-09-14T11:09:32.375Z,7.47
2018-09-14T11:12:01.304Z,7.30
2018-09-14T11:14:29.822Z,8.43
2018-09-14T11:16:58.744Z,8.20
2018-09-14T11:19:27.216Z,7.90
2018-09-14T11:21:55.920Z,8.00
2018-09-14T11:24:24.501Z,7.80
2018-09-14T11:26:53.357Z,7.80
2018-09-14T11:29:21.876Z,6.73
2018-09-14T11:31:51.673Z,7.70
2018-09-14T11:34:21.678Z,7.80
2018-09-14T11:36:50.325Z,8.63
2018-09-14T11:39:19.029Z,8.57
2018-09-14T11:41:47.788Z,8.87
2018-09-14T11:44:16.914Z,7.80
2018-09-14T11:46:46.032Z,6.83
2018-09-14T11:49:14.800Z,6.43
2018-09-14T11:51:44.224Z,6.07
2018-09-14T11:54:12.777Z,6.00
2018-09-14T11:56:41.825Z,5.87
2018-09-14T11:59:10.391Z,4.00
2018-09-14T12:01:39.319Z,4.47
2018-09-14T12:04:08.610Z,3.60
2018-09-14T12:06:37.153Z,4.27
2018-09-14T12:09:08.467Z,4.50
2018-09-14T12:11:37.561Z,4.77
2018-09-14T12:14:07.128Z,4.17
2018-09-14T12:16:36.413Z,4.60
2018-09-14T12:19:05.174Z,4.70
2018-09-14T12:21:34.024Z,4.63
2018-09-14T12:24:02.863Z,4.23
2018-09-14T12:26:31.504Z,4.17
2018-09-14T12:29:00.285Z,3.70
2018-09-14T12:31:28.853Z,3.50
2018-09-14T12:33:57.981Z,3.30
2018-09-14T12:36:26.901Z,3.00
2018-09-14T12:38:55.762Z,3.10
2018-09-14T12:41:25.017Z,2.97
2018-09-14T12:43:53.506Z,2.60
2018-09-14T12:46:22.044Z,2.67
2018-09-14T12:48:50.572Z,2.40
2018-09-14T12:51:19.154Z,2.53
2018-09-14T12:53:47.725Z,2.17
2018-09-14T12:56:16.786Z,2.60
2018-09-14T12:58:45.461Z,2.60
2018-09-14T13:01:14.350Z,3.00
2018-09-14T13:03:42.952Z,2.90
2018-09-14T13:06:11.788Z,2.60
2018-09-14T13:08:41.452Z,3.10
2018-09-14T13:11:10.026Z,3.77
2018-09-14T13:13:38.953Z,3.70
2018-09-14T13:16:07.692Z,2.80
2018-09-14T13:18:36.335Z,3.30
2018-09-14T13:21:04.935Z,3.20
2018-09-14T13:23:33.905Z,3.27
2018-09-14T13:26:02.680Z,3.10
2018-09-14T13:28:31.615Z,4.00
2018-09-14T13:31:00.680Z,3.73
2018-09-14T13:33:29.303Z,3.60
2018-09-14T13:35:57.940Z,3.90
2018-09-14T13:38:27.536Z,3.53
2018-09-14T13:40:56.493Z,3.87
2018-09-14T13:43:25.589Z,3.70
2018-09-14T13:45:54.417Z,4.10
2018-09-14T13:48:23.074Z,3.90
2018-09-14T13:50:51.631Z,3.20
2018-09-14T13:53:20.172Z,2.30
2018-09-14T13:55:48.739Z,2.10
2018-09-14T13:58:17.366Z,2.80
2018-09-14T14:00:46.779Z,2.57
2018-09-14T14:03:15.593Z,2.90
2018-09-14T14:05:44.191Z,2.90
2018-09-14T14:08:13.211Z,2.63
2018-09-14T14:10:42.089Z,2.13
2018-09-14T14:13:11.005Z,2.57
2018-09-14T14:15:40.078Z,2.20
2018-09-14T14:18:08.962Z,2.60
2018-09-14T14:20:37.593Z,2.57
2018-09-14T14:23:07.073Z,2.50
2018-09-14T14:25:36.172Z,2.57
2018-09-14T14:28:04.887Z,2.47
2018-09-14T14:30:34.150Z,2.40
2018-09-14T14:33:03.313Z,2.73
2018-09-14T14:35:32.338Z,2.13
2018-09-14T14:38:01.120Z,2.00
2018-09-14T14:40:30.009Z,2.60
2018-09-14T14:42:59.004Z,2.90
2018-09-14T14:45:27.795Z,2.40
2018-09-14T14:47:56.628Z,2.80
2018-09-14T14:50:25.072Z,2.87
2018-09-14T14:52:53.752Z,2.47
2018-09-14T14:55:22.653Z,2.60
2018-09-14T14:57:51.601Z,2.70
2018-09-14T15:00:20.743Z,2.47
2018-09-14T15:02:49.815Z,2.20
2018-09-14T15:05:18.327Z,2.40
2018-09-14T15:07:47.310Z,2.43
2018-09-14T15:10:15.780Z,2.57
2018-09-14T15:12:44.902Z,2.20
2018-09-14T15:15:13.322Z,2.30
2018-09-14T15:17:42.251Z,1.90
2018-09-14T15:20:10.775Z,1.90
2018-09-14T15:22:39.697Z,1.40
2018-09-14T15:25:08.689Z,1.20
2018-09-14T15:27:37.552Z,1.47
2018-09-14T15:30:06.163Z,1.40
2018-09-14T15:32:35.124Z,1.47
2018-09-14T15:35:04.320Z,1.47
2018-09-14T15:37:33.356Z,1.07
2018-09-14T15:40:01.912Z,1.27
2018-09-14T15:42:31.006Z,1.40
2018-09-14T15:44:59.500Z,1.50
2018-09-14T15:47:28.334Z,1.37
2018-09-14T15:49:56.813Z,1.80
2018-09-14T15:52:25.742Z,1.10
2018-09-14T15:54:55.338Z,1.40
2018-09-14T15:57:24.228Z,1.27
2018-09-14T15:59:52.752Z,1.30
2018-09-14T16:02:21.809Z,1.87
2018-09-14T16:04:50.550Z,1.37
2018-09-14T16:07:19.480Z,1.50
2018-09-14T16:09:48.064Z,1.73
2018-09-14T16:12:17.064Z,1.40
2018-09-14T16:14:45.551Z,1.40
2018-09-14T16:17:14.409Z,1.27
2018-09-14T16:19:43.033Z,1.47
2018-09-14T16:22:12.033Z,1.27
2018-09-14T16:24:41.260Z,1.20
2018-09-14T16:27:10.257Z,1.07
2018-09-14T16:29:39.023Z,0.80
2018-09-14T16:32:08.464Z,1.10
2018-09-14T16:34:37.101Z,0.80
2018-09-14T16:37:08.382Z,1.30
2018-09-14T16:39:37.326Z,1.07
2018-09-14T16:42:05.880Z,1.10
2018-09-14T16:44:34.820Z,1.20
2018-09-14T16:47:04.671Z,1.20
2018-09-14T16:49:33.703Z,1.30
2018-09-14T16:52:02.501Z,1.30
2018-09-14T16:54:31.372Z,1.00
2018-09-14T16:57:00.308Z,1.07
2018-09-14T16:59:29.260Z,1.10
2018-09-14T17:01:57.790Z,1.20
2018-09-14T17:04:26.800Z,1.17
2018-09-14T17:06:56.336Z,1.20
2018-09-14T17:09:25.953Z,1.17
2018-09-14T17:11:54.983Z,0.83
2018-09-14T17:14:24.125Z,1.17
2018-09-14T17:16:53.300Z,1.20
2018-09-14T17:19:22.110Z,1.23
2018-09-14T17:21:51.223Z,0.97
2018-09-14T17:24:19.897Z,0.83
2018-09-14T17:26:48.639Z,1.70
2018-09-14T17:29:17.478Z,0.90
2018-09-14T17:31:46.034Z,1.00
2018-09-14T17:34:15.024Z,1.07
2018-09-14T17:36:43.570Z,0.60
2018-09-14T17:39:12.386Z,0.97
2018-09-14T17:41:41.884Z,0.80
2018-09-14T17:44:10.881Z,0.83
2018-09-14T17:46:40.313Z,1.17
2018-09-14T17:49:08.992Z,0.70
2018-09-14T17:51:37.948Z,0.53
2018-09-14T17:54:07.025Z,0.60
2018-09-14T17:56:36.229Z,0.80
2018-09-14T17:59:05.288Z,0.70
2018-09-14T18:01:34.277Z,0.80
2018-09-14T18:04:03.071Z,0.80
2018-09-14T18:06:31.847Z,0.67
2018-09-14T18:09:00.651Z,1.00
2018-09-14T18:11:29.633Z,0.87
2018-09-14T18:13:59.032Z,0.60
2018-09-14T18:16:27.992Z,1.07
2018-09-14T18:18:56.456Z,0.80
2018-09-14T18:21:25.324Z,0.80
2018-09-14T18:23:53.758Z,0.80
2018-09-14T18:26:22.494Z,2.80
2018-09-14T18:28:51.016Z,1.60
2018-09-14T18:31:19.651Z,1.60
2018-09-14T18:33:48.753Z,1.00
2018-09-14T18:36:17.726Z,1.00
2018-09-14T18:38:46.569Z,1.53
2018-09-14T18:41:15.246Z,1.20
2018-09-14T18:43:44.155Z,0.97
2018-09-14T18:46:12.688Z,1.17
2018-09-14T18:48:41.625Z,1.00
2018-09-14T18:51:10.528Z,1.30
2018-09-14T18:53:39.167Z,1.40
2018-09-14T18:56:08.406Z,1.20
2018-09-14T18:58:36.965Z,1.03
2018-09-14T19:01:06.181Z,1.13
2018-09-14T19:03:35.069Z,1.20
2018-09-14T19:06:05.537Z,1.10
2018-09-14T19:08:34.352Z,1.40
2018-09-14T19:11:03.478Z,1.13
2018-09-14T19:13:31.993Z,1.37
2018-09-14T19:16:01.189Z,1.17
2018-09-14T19:18:29.765Z,1.10
2018-09-14T19:20:58.397Z,1.00
2018-09-14T19:23:27.709Z,1.20
2018-09-14T19:25:56.612Z,1.10
2018-09-14T19:28:25.532Z,1.20
2018-09-14T19:30:54.130Z,1.20
2018-09-14T19:33:23.146Z,1.20
2018-09-14T19:35:51.820Z,0.87
2018-09-14T19:38:20.551Z,1.20
2018-09-14T19:40:49.452Z,0.90
2018-09-14T19:43:17.987Z,1.10
2018-09-14T19:45:46.887Z,1.80
2018-09-14T19:48:15.421Z,2.73
2018-09-14T19:50:45.319Z,6.23
2018-09-14T19:53:13.873Z,5.70
2018-09-14T19:55:42.849Z,3.23
2018-09-14T19:58:11.474Z,3.03
2018-09-14T20:00:40.056Z,1.20
2018-09-14T20:03:09.302Z,1.17
2018-09-14T20:05:37.843Z,0.93
2018-09-14T20:08:06.739Z,1.27
2018-09-14T20:10:35.209Z,1.00
2018-09-14T20:13:04.809Z,0.80
2018-09-14T20:15:33.344Z,1.43
2018-09-14T20:18:02.416Z,1.10
2018-09-14T20:20:31.325Z,1.10
2018-09-14T20:23:01.099Z,0.90
2018-09-14T20:25:29.964Z,1.13
2018-09-14T20:27:59.346Z,1.03
2018-09-14T20:30:28.301Z,1.20
2018-09-14T20:32:57.520Z,0.97
2018-09-14T20:35:26.593Z,1.60
2018-09-14T20:37:55.384Z,1.63
2018-09-14T20:40:24.193Z,1.27
2018-09-14T20:42:52.786Z,1.50
2018-09-14T20:45:21.464Z,2.97
2018-09-14T20:47:50.649Z,3.80
2018-09-14T20:50:19.712Z,2.70
2018-09-14T20:52:48.530Z,1.43
2018-09-14T20:55:17.280Z,2.07
2018-09-14T20:57:46.178Z,1.60
2018-09-14T21:00:17.878Z,1.87
2018-09-14T21:02:46.861Z,2.00
2018-09-14T21:05:15.444Z,1.60
2018-09-14T21:07:44.482Z,1.30
2018-09-14T21:10:13.454Z,1.37
2018-09-14T21:12:42.127Z,2.03
2018-09-14T21:15:11.010Z,2.20
2018-09-14T21:17:40.367Z,2.60
2018-09-14T21:20:08.870Z,2.20
2018-09-14T21:22:38.218Z,1.80
2018-09-14T21:25:08.596Z,2.10
2018-09-14T21:27:37.692Z,1.97
2018-09-14T21:30:07.961Z,1.87
2018-09-14T21:32:37.341Z,1.80
2018-09-14T21:35:06.609Z,1.40
2018-09-14T21:37:35.408Z,1.50
2018-09-14T21:40:05.044Z,1.40
2018-09-14T21:45:06.298Z,1.40
2018-09-14T21:47:35.136Z,1.57
2018-09-14T21:50:03.677Z,1.57
2018-09-14T21:52:32.504Z,1.47
2018-09-14T21:55:01.415Z,1.50
2018-09-14T21:57:29.957Z,1.50
2018-09-14T21:59:58.944Z,1.60
2018-09-14T22:02:27.529Z,1.50
2018-09-14T22:04:56.310Z,1.60
2018-09-14T22:07:25.236Z,1.57
2018-09-14T22:09:53.900Z,1.10
2018-09-14T22:12:22.787Z,1.40
2018-09-14T22:14:51.363Z,1.20
2018-09-14T22:17:20.118Z,1.50
2018-09-14T22:19:48.622Z,1.30
2018-09-14T22:22:17.229Z,1.83
2018-09-14T22:24:46.063Z,1.30
2018-09-14T22:27:14.577Z,1.30
2018-09-14T22:29:43.350Z,1.27
2018-09-14T22:32:12.207Z,1.93
2018-09-14T22:34:41.439Z,1.43
2018-09-14T22:37:10.221Z,1.40
2018-09-14T22:39:38.924Z,1.50
2018-09-14T22:42:08.201Z,1.70
2018-09-14T22:44:36.750Z,1.40
2018-09-14T22:47:05.884Z,1.70
2018-09-14T22:49:34.351Z,1.73
2018-09-14T22:52:03.319Z,1.87
2018-09-14T22:54:32.271Z,1.50
2018-09-14T22:57:00.886Z,1.93
2018-09-14T22:59:29.598Z,2.10
2018-09-14T23:01:58.117Z,1.63
2018-09-14T23:04:26.769Z,1.83
2018-09-14T23:06:55.592Z,2.00
2018-09-14T23:09:24.142Z,1.90
2018-09-14T23:11:53.248Z,2.20
2018-09-14T23:14:21.952Z,2.10
2018-09-14T23:16:50.970Z,1.90
2018-09-14T23:19:19.535Z,1.87
2018-09-14T23:21:48.494Z,2.23
2018-09-14T23:24:17.295Z,1.80
2018-09-14T23:26:45.985Z,2.30
2018-09-14T23:29:14.726Z,2.50
2018-09-14T23:31:43.246Z,2.03
2018-09-14T23:34:11.744Z,2.30
2018-09-14T23:36:40.754Z,2.40
2018-09-14T23:39:10.790Z,2.30
2018-09-14T23:41:39.447Z,2.47
2018-09-14T23:44:08.441Z,2.40
2018-09-14T23:46:37.392Z,1.97
2018-09-14T23:49:06.114Z,2.27
2018-09-14T23:51:35.178Z,2.77
2018-09-14T23:54:03.736Z,2.50
2018-09-14T23:56:32.600Z,2.30
2018-09-14T23:59:01.148Z,2.30
